Login
Access
Login with your mtb-forum.it nickname and password.


You do not have an account? Sign up here for free

CYBRIDO

Last training unit 08/09/2015
1
Followers
28 708 Km
itineraries
361 660 m
of total vertical gain
1058
hours of riding
26.98 Km/h
average speed
126
average HR


08/09/2015 Show to everybody berici cover 103.52 Km 2179 m 03:42:42 27.89 Km\h Battaglin C12
08/09/2015 Show to everybody berici 103.59 Km 1535 m 03:44:48 27.65 Km\h Battaglin C12
06/09/2015 Show to everybody Selva 113.06 Km 2023 m 04:15:49 26.52 Km\h Battaglin C12
04/09/2015 Show to everybody bassano ar 54.57 Km 238 m 01:52:10 29.19 Km\h Battaglin C12
01/09/2015 Show to everybody pradipaldo ar 61.04 Km 655 m 02:02:54 29.8 Km\h Battaglin C12
30/08/2015 Show to everybody corno gallio 151.39 Km 1726 m 05:20:34 28.34 Km\h Battaglin C12
28/08/2015 Show to everybody giro pomeridiano 54.75 Km 910 m 01:56:03 28.31 Km\h Battaglin C12
26/08/2015 Show to everybody calvene lusiana militare 56.3 Km 993 m 01:59:52 28.18 Km\h Battaglin C12
25/08/2015 Show to everybody borso del grappa ar 61.9 Km 306 m 01:56:12 31.96 Km\h Battaglin C12
20/08/2015 Show to everybody folgaria 127.89 Km 2314 m 04:35:09 27.89 Km\h Battaglin C12
18/08/2015 Show to everybody camisino 52.41 Km 746 m 01:54:35 27.44 Km\h Battaglin C12
17/08/2015 Show to everybody Thiene Bassano 62.47 Km 571 m 02:04:16 30.16 Km\h Battaglin C12
15/08/2015 Show to everybody rotzo 154.03 Km 1517 m 05:03:48 30.42 Km\h Battaglin C12
14/08/2015 Show to everybody Berici 59.34 Km 447 m 02:01:02 29.42 Km\h Battaglin C12
12/08/2015 Show to everybody St margherita 96.22 Km 1669 m 03:38:05 26.47 Km\h Battaglin C12
11/08/2015 Show to everybody valle di sopra san luca 54.73 Km 837 m 01:58:53 27.62 Km\h Battaglin C12
09/08/2015 Show to everybody campogrosso 133.53 Km 1635 m 04:53:00 27.34 Km\h Battaglin C12
07/08/2015 Show to everybody xausa calvene 53.08 Km 942 m 01:59:56 26.55 Km\h Battaglin C12
05/08/2015 Show to everybody Cima valdagno 119.4 Km 1659 m 04:34:05 26.14 Km\h Battaglin C12
04/08/2015 Show to everybody valrovina 58.54 Km 529 m 02:01:02 29.02 Km\h Battaglin C12
02/08/2015 Show to everybody rubbio campomulo 159.25 Km 1977 m 05:26:55 29.23 Km\h Battaglin C12
30/07/2015 Show to everybody Sasso stoccaredo corno 101.31 Km 1828 m 03:52:04 26.19 Km\h Battaglin C12
28/07/2015 Show to everybody scarico uomo scarico 57.17 Km 279 m 01:55:04 29.81 Km\h Battaglin C12
26/07/2015 Show to everybody Corno san gottardo 137.77 Km 1817 m 05:02:50 27.3 Km\h Battaglin C12
24/07/2015 Show to everybody lusianese san luca 49.73 Km 691 m 01:49:01 27.37 Km\h Battaglin C12
23/07/2015 Show to everybody cima grappa 105.18 Km 1810 m 04:06:01 25.65 Km\h Battaglin C12
21/07/2015 Show to everybody ma ce ne sono altri come te in giro.............. 53.51 Km 962 m 02:03:13 26.06 Km\h Battaglin C12
19/07/2015 Show to everybody foza lusiana 146.24 Km 1377 m 05:01:03 29.15 Km\h Battaglin C12
17/07/2015 Show to everybody lusiana ...... in cerca di fresco 52.4 Km 936 m 01:57:29 26.76 Km\h Battaglin C12
15/07/2015 Show to everybody rotzo lusiana 147.69 Km 1463 m 04:57:39 29.77 Km\h Battaglin C12
14/07/2015 Show to everybody campana piazza 54.49 Km 1003 m 02:00:01 27.24 Km\h Battaglin C12
12/07/2015 Show to everybody Corno rubbio 140.15 Km 1823 m 05:01:10 27.92 Km\h Battaglin C12
12/07/2015 Show to everybody 07-12-2015 secula, veneto, italy 11.26 Km 20 m 00:53:03 12.74 Km\h Battaglin C12
10/07/2015 Show to everybody comenda san gottardo 57.17 Km 762 m 01:57:25 29.21 Km\h Battaglin C12
08/07/2015 Show to everybody San gottardo villaga 55.51 Km 803 m 01:57:30 28.35 Km\h Battaglin C12
06/07/2015 Show to everybody san gottardo san vito 53.65 Km 788 m 01:54:10 28.2 Km\h Battaglin C12
05/07/2015 Show to everybody 05-07-15 secula, veneto, italy 6.4 Km 6 m 00:29:33 12.99 Km\h Battaglin C12
04/07/2015 Show to everybody bolca arzignano 120.52 Km 1721 m 04:33:48 26.41 Km\h Battaglin C12
02/07/2015 Show to everybody rotzo gallio 97.79 Km 1415 m 03:13:03 30.39 Km\h Battaglin C12
30/06/2015 Show to everybody borso del grappa 59.16 Km 301 m 01:52:56 31.43 Km\h Battaglin C12
28/06/2015 Show to everybody gallio asiago 146.6 Km 1559 m 04:56:06 29.71 Km\h Battaglin C12
25/06/2015 Show to everybody 250615 70.88 Km 143 m 02:11:40 32.3 Km\h Battaglin C12
24/06/2015 Show to everybody 240615 103.11 Km 139 m 03:04:03 33.61 Km\h Battaglin C12
22/06/2015 Show to everybody Jesolo 68.63 Km 70 m 02:02:40 33.57 Km\h Battaglin C12
21/06/2015 Show to everybody raggi che saltano 10.87 Km 27 m 00:30:07 21.65 Km\h Battaglin C12
21/06/2015 Show to everybody lugugnana 67.66 Km 74 m 01:59:24 34 Km\h Battaglin C12
20/06/2015 Show to everybody livenza II 64.84 Km 138 m 02:00:55 32.17 Km\h Battaglin C12
19/06/2015 Show to everybody caorle 65.39 Km 56 m 01:57:15 33.46 Km\h Battaglin C12
17/06/2015 Show to everybody 170615 porto santa margherita 109 Km 197 m 03:25:41 31.8 Km\h Battaglin C12
16/06/2015 Show to everybody porto santa margherita 160615 60.1 Km 57 m 01:45:39 34.13 Km\h Battaglin C12
11/06/2015 Show to everybody san luca lusiana breganze 58.63 Km 819 m 01:59:20 29.48 Km\h Battaglin C12
10/06/2015 Show to everybody raposso san gottardo zovencedo 53.06 Km 820 m 01:54:41 27.76 Km\h Battaglin C12
08/06/2015 Show to everybody dorsale dei berici toara 51.38 Km 660 m 01:51:21 27.69 Km\h Battaglin C12
06/06/2015 Show to everybody nosellari vezzene 171.7 Km 1795 m 05:48:51 29.53 Km\h Battaglin C12
04/06/2015 Show to everybody lapio barbarano 52.67 Km 473 m 01:46:45 29.6 Km\h Battaglin C12
02/06/2015 Show to everybody tonezza da barcarola 129 Km 1373 m 04:29:43 28.7 Km\h Battaglin C12
01/06/2015 Show to everybody laverda lusiana 54.03 Km 764 m 01:53:49 28.48 Km\h Battaglin C12
31/05/2015 Show to everybody giro sarà 11.29 Km 7 m 01:05:16 10.38 Km\h Battaglin C12
30/05/2015 Show to everybody mgbd 2015 156.52 Km 2007 m 05:55:54 26.39 Km\h Battaglin C12
28/05/2015 Show to everybody Vigo brogliano altissimo 112.82 Km 1406 m 03:59:17 28.29 Km\h Battaglin C12
25/05/2015 Show to everybody thiene lusiana marostica 54.7 Km 829 m 01:56:45 28.11 Km\h Battaglin C12
24/05/2015 Show to everybody A vedere il giro 137.01 Km 943 m 04:30:26 30.4 Km\h Battaglin C12
21/05/2015 Show to everybody A spasso con le vecchie glorie mediolanum 110.24 Km 1114 m 03:56:31 27.97 Km\h Battaglin C12
19/05/2015 Show to everybody thiene marostica ar 56.32 Km 770 m 01:59:03 28.38 Km\h Battaglin C12
17/05/2015 Show to everybody giro con sara 6.74 Km 16 m 00:37:16 10.86 Km\h Battaglin C12
17/05/2015 Show to everybody Valstagna foza lusiana 158.49 Km 1611 m 05:40:35 27.92 Km\h Battaglin C12
14/05/2015 Show to everybody Big Camp da valli 131.92 Km 1653 m 04:52:44 27.04 Km\h Battaglin C12
12/05/2015 Show to everybody anello sandrigo bassano 65.21 Km 229 m 01:56:53 33.47 Km\h Battaglin C12
10/05/2015 Show to everybody Corno con amici 131.95 Km 1604 m 04:52:59 27.02 Km\h Battaglin C12
10/05/2015 Show to everybody uscita con sara 11.05 Km 19 m 00:52:03 12.74 Km\h Battaglin C12
09/05/2015 Show to everybody uscita didattica con Sara 6.67 Km 10 m 00:36:04 11.1 Km\h Battaglin C12
07/05/2015 Show to everybody marostica ar 59.61 Km 862 m 02:05:01 28.61 Km\h Battaglin C12
05/05/2015 Show to everybody toara orgiano Este faedo 112.72 Km 988 m 03:47:15 29.76 Km\h Battaglin C12
02/05/2015 Show to everybody recoaro valli magrè 126.39 Km 1161 m 04:28:35 28.24 Km\h Battaglin C12
01/05/2015 Show to everybody berici bdc 111.44 Km 1121 m 04:07:07 27.06 Km\h Battaglin C12
29/04/2015 Show to everybody thiene marostica ar 53.48 Km 749 m 01:50:21 29.08 Km\h Battaglin C12
25/04/2015 Show to everybody San Luca lusiana 116.53 Km 1198 m 04:14:11 27.51 Km\h Battaglin C12
23/04/2015 Show to everybody berici bdc 84.87 Km 1530 m 03:08:02 27.08 Km\h Battaglin C12
21/04/2015 Show to everybody asiago Lusiana breganze 77.53 Km 1313 m 02:38:11 29.41 Km\h Battaglin C12
19/04/2015 Show to everybody lusiana ar 126.18 Km 1207 m 04:27:18 28.32 Km\h Battaglin C12
18/04/2015 Show to everybody the cheese journey 26.69 Km 23 m 00:54:39 29.31 Km\h Battaglin C12
16/04/2015 Show to everybody lusiana san gottardo 126.77 Km 1607 m 04:39:27 27.22 Km\h Battaglin C12
14/04/2015 Show to everybody anello sandrigo bassano 62.59 Km 228 m 01:56:26 32.25 Km\h Battaglin C12
12/04/2015 Show to everybody post influenza bdc 109.78 Km 888 m 03:45:44 29.18 Km\h Battaglin C12
06/04/2015 Show to everybody digestione colomba 60.84 Km 113 m 01:59:08 30.64 Km\h Battaglin C12
04/04/2015 Show to everybody berici bdc 80.36 Km 1313 m 03:02:22 26.44 Km\h Battaglin C12
03/04/2015 Show to everybody ciclabile montagnana bdc 60.4 Km 16 m 02:01:00 29.95 Km\h Battaglin C12
01/04/2015 Show to everybody Schio xomo Posina 141.71 Km 1533 m 05:02:37 28.1 Km\h Battaglin C12
29/03/2015 Show to everybody berici in gruppo bdc 112.54 Km 1536 m 04:14:50 26.5 Km\h Battaglin C12
27/03/2015 Show to everybody bassano ar bdc 60.09 Km 305 m 01:53:47 31.69 Km\h Battaglin C12
21/03/2015 Show to everybody urbano quargnenta arzignano 111.81 Km 1546 m 04:39:12 24.03 Km\h Battaglin C12
18/03/2015 Show to everybody euganei bdc 117.8 Km 653 m 03:46:51 31.16 Km\h Battaglin C12
14/03/2015 Show to everybody bregonze+berici bdc 127.14 Km 1500 m 04:45:14 26.74 Km\h Battaglin C12
11/03/2015 Show to everybody berici + castelgomberto bdc 111 Km 1681 m 04:17:07 25.9 Km\h Battaglin C12
08/03/2015 Show to everybody grancona san giovanni brogliano bdc 117.97 Km 2018 m 04:30:40 26.15 Km\h Battaglin C12
01/03/2015 Show to everybody cavazzale romano bdc 103.12 Km 335 m 03:17:47 31.28 Km\h Battaglin C12
25/02/2015 Show to everybody colli berici (3) 69.85 Km 1364 m 02:50:46 24.54 Km\h Battaglin C12
22/02/2015 Show to everybody colli berici (2) 48.98 Km 1138 m 02:18:26 21.23 Km\h Battaglin C12
18/02/2015 Show to everybody grancona santa margherita bdc 101.66 Km 1404 m 03:48:14 26.73 Km\h Battaglin C12
15/02/2015 Show to everybody colli berici (1) 65.85 Km 1369 m 03:04:20 21.44 Km\h Battaglin C12
12/02/2015 Show to everybody colli berici 80.11 Km 1791 m 03:21:00 23.91 Km\h Battaglin C12
08/02/2015 Show to everybody colli berici mtb 66.09 Km 1485 m 03:04:20 21.51 Km\h Battaglin C12
31/01/2015 Show to everybody Allenamento 31-01-15 alle 10:57 67.53 Km 1478 m 03:10:15 21.3 Km\h Battaglin C12
28/01/2015 Show to everybody colli berici mtb 67.24 Km 1541 m 03:07:42 21.49 Km\h Battaglin C12
25/01/2015 Show to everybody santa margherita arzignano bdc 101.99 Km 1327 m 03:49:46 26.63 Km\h Battaglin C12
18/01/2015 Show to everybody colli berici 19 01 2015 62.63 Km 1366 m 02:57:34 21.16 Km\h Battaglin C12
14/01/2015 Show to everybody Colli Berici 57.89 Km 1391 m 03:02:13 19.06 Km\h Battaglin C12
11/01/2015 Show to everybody Colli Berici 60.8 Km 1319 m 02:59:44 20.3 Km\h Battaglin C12
06/01/2015 Show to everybody colli berici mtb 59.41 Km 1260 m 02:42:43 21.91 Km\h Battaglin C12
04/01/2015 Show to everybody Colli Berici 59.43 Km 1153 m 02:38:57 22.43 Km\h Battaglin C12
26/12/2014 Show to everybody Colli Berici 42.03 Km 863 m 02:01:45 20.71 Km\h Battaglin C12
21/12/2014 Show to everybody colli berici mtb 48.35 Km 981 m 02:12:33 21.89 Km\h Battaglin C12
13/12/2014 Show to everybody san giorgio delle pertiche bdc 68.84 Km 68 m 02:15:50 30.41 Km\h Battaglin C12
08/12/2014 Show to everybody prima uscita post infortunio bdc 37.21 Km 60 m 01:16:56 29.02 Km\h Battaglin C12
16/11/2014 Show to everybody dopo una settimana di astinenza bdc 75.01 Km 107 m 02:23:47 31.3 Km\h Battaglin C12
09/11/2014 Show to everybody sotto la pioggia in compagnia mtb 39.77 Km 559 m 01:54:54 20.77 Km\h Battaglin C12
02/11/2014 Show to everybody Colli Berici 70.5 Km 1732 m 03:48:50 18.49 Km\h Battaglin C12
31/10/2014 Show to everybody villaverla costabissara castelgomberto bdc 63.65 Km 320 m 01:52:11 34.04 Km\h Battaglin C12
29/10/2014 Show to everybody circuito sandrigo bassano bdc 59.86 Km 207 m 01:48:21 33.15 Km\h Battaglin C12
28/10/2014 Show to everybody salcedo veneziane san luca bdc 54.54 Km 928 m 01:56:37 28.06 Km\h Battaglin C12
26/10/2014 Show to everybody colli berici mtb 57.88 Km 1625 m 03:18:23 17.5 Km\h Battaglin C12
24/10/2014 Show to everybody circuito sandrigo bassano bdc 60.64 Km 204 m 01:47:50 33.74 Km\h Battaglin C12
22/10/2014 Show to everybody lugo lusiana marostica bdc 56.64 Km 846 m 02:01:01 28.08 Km\h Battaglin C12
20/10/2014 Show to everybody salcedo san luca bdc 55.49 Km 788 m 02:00:58 27.52 Km\h Battaglin C12
19/10/2014 Show to everybody santa margherita valdagno bdc 92.31 Km 1383 m 03:18:58 27.84 Km\h Battaglin C12
15/10/2014 Show to everybody circuito sandrigo bassano bdc 59.75 Km 183 m 01:45:25 34.01 Km\h Battaglin C12
14/10/2014 Show to everybody piovene arsiero camisino bdc 58.6 Km 838 m 02:03:04 28.57 Km\h Battaglin C12
12/10/2014 Show to everybody saluto agli amici mtb e ritorno bdc 91.14 Km 1111 m 03:10:58 28.63 Km\h Battaglin C12
10/10/2014 Show to everybody circuito sandrigo bassano bdc 62.9 Km 197 m 01:56:19 32.45 Km\h Battaglin C12
09/10/2014 Show to everybody up and down bdc 59.5 Km 1064 m 02:06:15 28.28 Km\h Battaglin C12
06/10/2014 Show to everybody sandrigo bassano bdc 63.7 Km 224 m 02:02:16 31.26 Km\h Battaglin C12
05/10/2014 Show to everybody berici 46.55 Km 1091 m 02:10:34 21.39 Km\h Battaglin C12
05/10/2014 Show to everybody sgambata 14.92 Km 131 m 00:40:19 22.2 Km\h Battaglin C12
05/10/2014 Show to everybody sgambata 13.16 Km 133 m 00:33:14 23.77 Km\h Battaglin C12
04/10/2014 Show to everybody berici 41.97 Km 735 m 01:50:58 22.7 Km\h Battaglin C12
02/10/2014 Show to everybody piatto piattone bdc 62.67 Km 202 m 01:55:13 32.64 Km\h Battaglin C12
30/09/2014 Show to everybody over lusiana bdc 56.19 Km 1043 m 02:04:42 27.03 Km\h Battaglin C12
29/09/2014 Show to everybody san pietro di rosà bdc 59.48 Km 238 m 01:56:19 30.68 Km\h Battaglin C12
28/09/2014 Show to everybody quello che mancava bdc 65.46 Km 398 m 02:09:52 30.24 Km\h Battaglin C12
28/09/2014 Show to everybody Galzignano colli 24.24 Km 736 m 01:19:50 18.22 Km\h Battaglin C12
28/09/2014 Show to everybody colli Galzignano 9.78 Km 288 m 00:38:27 15.26 Km\h Battaglin C12
25/09/2014 Show to everybody anello castelgomberto costabissara bdc 62.3 Km 327 m 01:55:33 32.35 Km\h Battaglin C12
24/09/2014 Show to everybody troppo freddo in montagna bdc 91.74 Km 1699 m 03:23:23 27.06 Km\h Battaglin C12
23/09/2014 Show to everybody lusiana conco bdc 62.6 Km 943 m 02:10:17 28.83 Km\h Battaglin C12
21/09/2014 Show to everybody berici su e giu bdc 98.76 Km 2104 m 03:51:05 25.64 Km\h Battaglin C12
18/09/2014 Show to everybody bregonze bdc 56.66 Km 866 m 02:04:25 27.32 Km\h Battaglin C12
17/09/2014 Show to everybody tonezza camisino lusiana bdc 106.28 Km 2032 m 04:00:02 26.57 Km\h Battaglin C12
15/09/2014 Show to everybody san luca lusiana salcedo bdc 58.75 Km 894 m 02:07:19 27.69 Km\h Battaglin C12
14/09/2014 Show to everybody defaticamento bdc 2.82 Km 0 m 00:07:00 24.21 Km\h Battaglin C12
14/09/2014 Show to everybody riscaldamento bdc 12.62 Km 138 m 00:31:49 23.8 Km\h Battaglin C12
14/09/2014 Show to everybody trofeo scaligero bdc 58.59 Km 1228 m 01:58:26 29.68 Km\h Battaglin C12
10/09/2014 Show to everybody val rovina pianezze bdc 57.78 Km 587 m 01:53:17 30.6 Km\h Battaglin C12
09/09/2014 Show to everybody zugliano caltrano mason bdc 56.9 Km 863 m 02:04:37 27.4 Km\h Battaglin C12
08/09/2014 Show to everybody gambugliano nogarole arzignano bdc 101.02 Km 1139 m 03:46:22 26.78 Km\h Battaglin C12
07/09/2014 Show to everybody berici bdc 8.76 Km 169 m 00:32:56 15.95 Km\h Battaglin C12
07/09/2014 Show to everybody berici bdc 37.9 Km 1116 m 02:04:20 18.29 Km\h Battaglin C12
05/09/2014 Show to everybody piattone bdc 65.02 Km 325 m 02:02:46 31.78 Km\h Battaglin C12
03/09/2014 Show to everybody mason san giorgio san luca bdc 49.66 Km 713 m 01:49:45 27.15 Km\h Battaglin C12
02/09/2014 Show to everybody salcedo laverda xausa bdc 58.73 Km 1106 m 02:09:30 27.21 Km\h Battaglin C12
30/08/2014 Show to everybody berici 73.41 Km 1782 m 04:07:29 17.8 Km\h Battaglin C12
28/08/2014 Show to everybody lusiana gomarolo bdc 71.93 Km 1116 m 02:36:27 27.59 Km\h Battaglin C12
27/08/2014 Show to everybody zovo valdagno priabona bdc 59.93 Km 657 m 02:01:57 29.49 Km\h Battaglin C12
26/08/2014 Show to everybody san luca lusiana breganze bdc 60.9 Km 885 m 02:03:03 29.69 Km\h Battaglin C12
24/08/2014 Show to everybody berici ed euganei bdc 130.61 Km 1019 m 04:25:13 29.55 Km\h Battaglin C12
22/08/2014 Show to everybody lugo campana piazza breganze bdc 55.33 Km 1001 m 01:59:38 27.75 Km\h Battaglin C12
20/08/2014 Show to everybody laverda xausa marostica san luca bdc 69.48 Km 1108 m 02:32:18 27.37 Km\h Battaglin C12
18/08/2014 Show to everybody lusiana santa caterina bdc 59.99 Km 847 m 02:04:44 28.86 Km\h Battaglin C12
14/08/2014 Show to everybody lusiana gomarolo bdc 67.41 Km 982 m 02:24:56 27.91 Km\h Battaglin C12
13/08/2014 Show to everybody colli berici 39.98 Km 1025 m 02:07:37 18.8 Km\h Battaglin C12
12/08/2014 Show to everybody camisino breganze bdc 43.29 Km 601 m 01:36:55 26.8 Km\h Battaglin C12
11/08/2014 Show to everybody san luca lusiana bdc 59.8 Km 889 m 02:05:50 28.51 Km\h Battaglin C12
10/08/2014 Show to everybody castelgomberto+faedo bdc 109.07 Km 1491 m 03:55:47 27.75 Km\h Battaglin C12
06/08/2014 Show to everybody rotzo verenetta lusiana bdc 107.28 Km 1924 m 03:47:58 28.24 Km\h Battaglin C12
04/08/2014 Show to everybody calvene lusiana conco bdc 62.58 Km 896 m 02:10:35 28.75 Km\h Battaglin C12
02/08/2014 Show to everybody colli berici svogliati bdc 88.11 Km 1580 m 03:11:54 27.55 Km\h Battaglin C12
31/07/2014 Show to everybody monte corno fontanelle bdc 101.54 Km 1783 m 03:45:37 27 Km\h Battaglin C12
28/07/2014 Show to everybody marostica lusiana calvene bdc 57.4 Km 837 m 02:01:29 28.35 Km\h Battaglin C12
25/07/2014 Show to everybody breganze lusiana marostica bdc 56.76 Km 825 m 01:58:03 28.85 Km\h Battaglin C12
23/07/2014 Show to everybody xomo con pioggia e foratura 73.64 Km 1069 m 02:48:24 26.24 Km\h Battaglin C12
22/07/2014 Show to everybody lusiana conco bdc 61.88 Km 900 m 02:08:15 28.95 Km\h Battaglin C12
20/07/2014 Show to everybody tonezza e oltre bdc 135.61 Km 1494 m 04:37:14 29.35 Km\h Battaglin C12
18/07/2014 Show to everybody berici al tramonto mtb 39.83 Km 875 m 02:04:40 19.17 Km\h Battaglin C12
17/07/2014 Show to everybody fra calvene e salcedo bdc 54.08 Km 807 m 02:04:48 26 Km\h Battaglin C12
16/07/2014 Show to everybody monte corno conco bdc 82.43 Km 1448 m 02:59:56 27.49 Km\h Battaglin C12
15/07/2014 Show to everybody tretto bdc 57.99 Km 857 m 02:09:48 26.81 Km\h Battaglin C12
12/07/2014 Show to everybody berici + santa margherita bdc 91.53 Km 1374 m 03:24:02 26.92 Km\h Battaglin C12
11/07/2014 Show to everybody valli del pasubio staro passo zovo bdc 71.63 Km 998 m 02:31:27 28.38 Km\h Battaglin C12
09/07/2014 Show to everybody lugo lusiana tortima bdc 62.35 Km 929 m 02:05:43 29.76 Km\h Battaglin C12
06/07/2014 Show to everybody gambugliano rotzo carrè bdc 155.31 Km 1738 m 05:14:43 29.61 Km\h Battaglin C12
04/07/2014 Show to everybody Colli berici 41.4 Km 1023 m 02:13:19 18.63 Km\h Battaglin C12
02/07/2014 Show to everybody monte magrè valdagno priabona bdc 57.51 Km 677 m 01:55:47 29.8 Km\h Battaglin C12
01/07/2014 Show to everybody salcedo laverda san luca bdc 54.21 Km 854 m 01:58:25 27.47 Km\h Battaglin C12
29/06/2014 Show to everybody sovizzo brogliano altissimo bdc 103.12 Km 1245 m 03:33:18 29.01 Km\h Battaglin C12
27/06/2014 Show to everybody 06_27_2014 porto santa margherita, veneto, italy 65.56 Km 44 m 01:59:44 32.85 Km\h Battaglin C12
26/06/2014 Show to everybody 06_26_2014 porto santa margherita, veneto, italy 100.62 Km 225 m 03:12:27 31.37 Km\h Battaglin C12
24/06/2014 Show to everybody 06_24_2014 porto santa margherita, veneto, italy 64.49 Km 125 m 01:53:48 34 Km\h Battaglin C12
23/06/2014 Show to everybody 06_23_2014 porto santa margherita, veneto, italy 60.02 Km 114 m 01:56:55 30.8 Km\h Battaglin C12
22/06/2014 Show to everybody 06_22_2014 porto santa margherita, veneto, italy 131.43 Km 128 m 04:02:10 32.56 Km\h Battaglin C12
20/06/2014 Show to everybody 06_20_2014 porto santa margherita, veneto, italy 121.63 Km 110 m 03:35:17 33.9 Km\h Battaglin C12
18/06/2014 Show to everybody 06_18_2014 porto santa margherita, veneto, italy 74.33 Km 108 m 02:11:05 34.02 Km\h Battaglin C12
17/06/2014 Show to everybody 06_17_2014 porto santa margherita, veneto, italy 103.87 Km 87 m 03:08:34 33.05 Km\h Battaglin C12
15/06/2014 Show to everybody 06_15_2014 porto santa margherita, veneto, italy 67.08 Km 90 m 02:09:07 31.17 Km\h Battaglin C12
13/06/2014 Show to everybody calvene mare lusiana bdc 56.41 Km 827 m 01:57:47 28.73 Km\h Battaglin C12
12/06/2014 Show to everybody bassano ar bdc 53.37 Km 263 m 01:48:19 29.57 Km\h Battaglin C12
11/06/2014 Show to everybody posina xomo schio bdc 76.56 Km 1114 m 02:45:10 27.81 Km\h Battaglin C12
10/06/2014 Show to everybody costo ar bdc 57.93 Km 985 m 02:02:08 28.46 Km\h Battaglin C12
08/06/2014 Show to everybody borcola pian delle fugazze tb04 bdc 118.61 Km 2304 m 05:05:37 23.29 Km\h Battaglin C12
06/06/2014 Show to everybody scarico bdc 56.33 Km 585 m 01:54:05 29.62 Km\h Battaglin C12
05/06/2014 Show to everybody lusiana conco san luca bdc 62.99 Km 1032 m 02:08:21 29.45 Km\h Battaglin C12
04/06/2014 Show to everybody salcedo veneziane bassano bdc 58.83 Km 689 m 01:59:14 29.6 Km\h Battaglin C12
02/06/2014 Show to everybody scarico berici bdc 49.64 Km 502 m 01:40:08 29.74 Km\h Battaglin C12
01/06/2014 Show to everybody riscaldamento cimbri mtb 10.69 Km 150 m 00:35:10 18.23 Km\h Battaglin C12
01/06/2014 Show to everybody gf dei cimbri 2014 39.88 Km 1254 m 02:12:48 18.02 Km\h Battaglin C12
30/05/2014 Show to everybody scarico bdc 44.08 Km 206 m 01:28:30 29.88 Km\h Battaglin C12
29/05/2014 Show to everybody salcedo pianezze bdc 57.23 Km 638 m 02:00:01 28.61 Km\h Battaglin C12
28/05/2014 Show to everybody scarico bdc 56.17 Km 316 m 01:52:57 29.84 Km\h Battaglin C12
27/05/2014 Show to everybody nanto+brendola bdc 54.75 Km 864 m 01:52:59 29.08 Km\h Battaglin C12
24/05/2014 Show to everybody monte grappa day + san luca bdc 102.24 Km 2156 m 04:05:57 24.94 Km\h Battaglin C12
22/05/2014 Show to everybody castelgomberto costabissara bdc 63.67 Km 349 m 02:05:34 30.42 Km\h Battaglin C12
21/05/2014 Show to everybody san nazario foza lusiana bdc 153.83 Km 1441 m 05:16:38 29.15 Km\h Battaglin C12
20/05/2014 Show to everybody rosina cartigliano bdc 59.43 Km 398 m 01:57:04 30.46 Km\h Battaglin C12
18/05/2014 Show to everybody divinus marathon 2014 75.45 Km 2372 m 03:52:34 19.46 Km\h Battaglin C12
18/05/2014 Show to everybody breve riscaldamento divinus 3.43 Km 9 m 00:13:15 15.52 Km\h Battaglin C12
15/05/2014 Show to everybody camisino arsiero bdc 63.04 Km 800 m 02:06:40 29.86 Km\h Battaglin C12
14/05/2014 Show to everybody che vento !!!!! 57.11 Km 840 m 02:06:32 27.08 Km\h Battaglin C12
12/05/2014 Show to everybody lusiana laverda bdc 55.87 Km 1003 m 02:01:25 27.61 Km\h Battaglin C12
10/05/2014 Show to everybody monte corno bdc 115.31 Km 1389 m 03:58:53 28.96 Km\h Battaglin C12
08/05/2014 Show to everybody s. margherita altissimo bdc 135.55 Km 1938 m 05:02:12 26.91 Km\h Battaglin C12
07/05/2014 Show to everybody salcedo san luca bdc 56.86 Km 987 m 02:01:30 28.08 Km\h Battaglin C12
05/05/2014 Show to everybody scarico bdc 55.94 Km 308 m 01:53:22 29.61 Km\h Battaglin C12
04/05/2014 Show to everybody roncà chiampo castelgomberto bdc 119.61 Km 2019 m 04:21:51 27.41 Km\h Battaglin C12
01/05/2014 Show to everybody montebello chiampo brogliano bdc 109.08 Km 1673 m 03:56:58 27.62 Km\h Battaglin C12
29/04/2014 Show to everybody scarico berici bdc 61.12 Km 281 m 02:00:45 30.37 Km\h Battaglin C12
27/04/2014 Show to everybody berici mtb 47.44 Km 1049 m 02:39:31 17.84 Km\h Battaglin C12
25/04/2014 Show to everybody sovizzo brogliano chiampo bdc 115.82 Km 1383 m 04:03:34 28.53 Km\h Battaglin C12
23/04/2014 Show to everybody camisino veneziane bdc 53.39 Km 889 m 01:56:08 27.59 Km\h Battaglin C12
22/04/2014 Show to everybody gambe piene di valpolicella bdc 52.81 Km 810 m 01:53:57 27.81 Km\h Battaglin C12
21/04/2014 Show to everybody berici mtb 29.57 Km 750 m 01:37:49 18.14 Km\h Battaglin C12
19/04/2014 Show to everybody berici bdc con vento 76.55 Km 1978 m 03:04:32 24.89 Km\h Battaglin C12
18/04/2014 Show to everybody rosina e ritorno bdc 57 Km 451 m 01:53:53 30.03 Km\h Battaglin C12
17/04/2014 Show to everybody berici bdc 89.24 Km 1701 m 03:22:47 26.4 Km\h Battaglin C12
16/04/2014 Show to everybody monte corno bdc 51.99 Km 1166 m 02:01:47 25.61 Km\h Battaglin C12
14/04/2014 Show to everybody lusiana con frana bdc 54 Km 784 m 01:53:32 28.54 Km\h Battaglin C12
13/04/2014 Show to everybody scarico berici bdc 35.88 Km 328 m 01:13:00 29.49 Km\h Battaglin C12
13/04/2014 Show to everybody pionca di vigonza xc 28.34 Km 5 m 01:05:34 25.94 Km\h Battaglin C12
13/04/2014 Show to everybody ciclocross travestito da mtb riscaldamento 10.41 Km 0 m 00:34:02 18.35 Km\h Battaglin C12
11/04/2014 Show to everybody bassano ar bdc 58.46 Km 449 m 01:55:44 30.31 Km\h Battaglin C12
09/04/2014 Show to everybody castelgomberto to bastia bdc 118.92 Km 1124 m 03:58:04 29.97 Km\h Battaglin C12
07/04/2014 Show to everybody scarico troppo attivo bdc 60.66 Km 300 m 01:53:54 31.95 Km\h Battaglin C12
06/04/2014 Show to everybody lusiana san rocco bdc 134.43 Km 1414 m 04:49:47 27.83 Km\h Battaglin C12
03/04/2014 Show to everybody scarico bdc 51.07 Km 233 m 01:41:32 30.18 Km\h Battaglin C12
02/04/2014 Show to everybody berici bdc 105.22 Km 1920 m 03:54:36 26.91 Km\h Battaglin C12
31/03/2014 Show to everybody 03_31_2014 thiene, province of vicenza, italy, veneto, italy 51.7 Km 489 m 01:51:34 27.81 Km\h Battaglin C12
30/03/2014 Show to everybody muzzolon monte di malo bdc 110.89 Km 1567 m 04:05:29 27.1 Km\h Battaglin C12
28/03/2014 Show to everybody costabissara priabona bdc 57.91 Km 306 m 01:51:08 31.26 Km\h Battaglin C12
27/03/2014 Show to everybody 03_27_2014 thiene, province of vicenza, italy, veneto, italy 57.2 Km 412 m 01:55:46 29.65 Km\h Battaglin C12
26/03/2014 Show to everybody berici euganei bdc 108.69 Km 1513 m 03:51:53 28.12 Km\h Battaglin C12
24/03/2014 Show to everybody scarico bdc 55.93 Km 478 m 01:49:46 30.57 Km\h Battaglin C12
22/03/2014 Show to everybody uscita di gruppo bdc 103.55 Km 1462 m 04:03:52 25.48 Km\h Battaglin C12
21/03/2014 Show to everybody scarico bdc 57.86 Km 258 m 01:56:44 29.74 Km\h Battaglin C12
20/03/2014 Show to everybody san giovanni ilarione chiampo bdc 106.86 Km 1519 m 03:50:56 27.76 Km\h Battaglin C12
18/03/2014 Show to everybody salcedo laverda bdc 54.06 Km 841 m 01:57:50 27.52 Km\h Battaglin C12
16/03/2014 Show to everybody tra verona e vicenza bdc 106.59 Km 1599 m 03:51:45 27.6 Km\h Battaglin C12
14/03/2014 Show to everybody lusiana veneziane bdc 52.1 Km 836 m 01:52:42 27.74 Km\h Battaglin C12
13/03/2014 Show to everybody colline di breganze bdc 50.87 Km 678 m 01:51:55 27.27 Km\h Battaglin C12
12/03/2014 Show to everybody colli euganei bdc 121.8 Km 1218 m 04:06:17 29.67 Km\h Battaglin C12
10/03/2014 Show to everybody scarico bdc 53.09 Km 196 m 01:52:39 28.28 Km\h Battaglin C12
09/03/2014 Show to everybody creazzo torreselle cereda bdc 122.46 Km 2038 m 04:42:29 26.01 Km\h Battaglin C12
06/03/2014 Show to everybody salcedo laverda gomarolo bdc 60.3 Km 935 m 02:09:14 28 Km\h Battaglin C12
05/03/2014 Show to everybody monselice colli euganei bdc 113.77 Km 745 m 03:50:50 29.57 Km\h Battaglin C12
03/03/2014 Show to everybody rosà ar bdc 61.71 Km 341 m 01:53:52 32.51 Km\h Battaglin C12
26/02/2014 Show to everybody rosà ar bdc 56.34 Km 263 m 01:47:37 31.41 Km\h Battaglin C12
25/02/2014 Show to everybody monteviale sossano bdc 101.69 Km 841 m 03:43:23 27.31 Km\h Battaglin C12
24/02/2014 Show to everybody marostica lusiana bdc 52.47 Km 826 m 02:04:16 25.33 Km\h Battaglin C12
23/02/2014 Show to everybody uscita di gruppo blanda bdc 105.79 Km 1092 m 03:58:34 26.61 Km\h Battaglin C12
21/02/2014 Show to everybody marostica lusiana bdc 59.77 Km 886 m 02:05:58 28.47 Km\h Battaglin C12
16/02/2014 Show to everybody tecla salve regina vlla fimon via monti 57.56 Km 1612 m 02:52:13 20.05 Km\h Battaglin C12
13/02/2014 Show to everybody valrovina bdc 57.4 Km 467 m 01:55:01 29.94 Km\h Battaglin C12
12/02/2014 Show to everybody molvena val rovina bdc 64.7 Km 599 m 02:14:58 28.76 Km\h Battaglin C12
09/02/2014 Show to everybody tecla in serie 43.14 Km 1155 m 02:12:17 19.57 Km\h Battaglin C12
01/02/2014 Show to everybody tecla in serie 44.37 Km 1152 m 02:19:17 19.11 Km\h Battaglin C12
26/01/2014 Show to everybody colli berici 65.54 Km 1814 m 03:20:28 19.62 Km\h Battaglin C12
23/01/2014 Show to everybody camisino e dintorni 50.87 Km 642 m 01:49:56 27.76 Km\h Battaglin C12
22/01/2014 Show to everybody thiene cassola bdc 60.17 Km 275 m 01:59:02 30.33 Km\h Battaglin C12
12/01/2014 Show to everybody colli berici 68.01 Km 1608 m 03:06:56 21.83 Km\h Battaglin C12
09/01/2014 Show to everybody colli berici 64.6 Km 1622 m 03:07:41 20.65 Km\h Battaglin C12
06/01/2014 Show to everybody colli berici 58.8 Km 1206 m 02:45:12 21.36 Km\h Battaglin C12
31/12/2013 Show to everybody colli berici 57.36 Km 973 m 02:16:52 25.15 Km\h Battaglin C12
28/12/2013 Show to everybody colli berici 55.79 Km 1155 m 02:40:29 20.86 Km\h Battaglin C12
18/12/2013 Show to everybody colli berici 42.78 Km 1201 m 02:23:56 17.83 Km\h Battaglin C12
15/12/2013 Show to everybody colli berici mtb 52.06 Km 1233 m 02:50:36 18.31 Km\h Battaglin C12
08/12/2013 Show to everybody colli berici 52.79 Km 1229 m 02:49:16 18.71 Km\h Battaglin C12
01/12/2013 Show to everybody colli berici bdc 67 Km 1148 m 02:40:39 25.02 Km\h Battaglin C12
24/11/2013 Show to everybody tecla in serie 51.92 Km 1102 m 02:25:13 21.45 Km\h Battaglin C12
17/11/2013 Show to everybody monteviale priabona bdc 92.82 Km 1010 m 03:21:24 27.65 Km\h Battaglin C12
13/11/2013 Show to everybody colli berici 45.79 Km 1285 m 02:43:04 16.85 Km\h Battaglin C12
10/11/2013 Show to everybody brendola lonigo bdc 88.06 Km 1643 m 03:25:51 25.67 Km\h Battaglin C12
07/11/2013 Show to everybody san giorgio molvena bdc 53.39 Km 683 m 01:51:41 28.68 Km\h Battaglin C12
06/11/2013 Show to everybody lonigo barbarano bdc 79.45 Km 1661 m 03:08:03 25.35 Km\h Battaglin C12
02/11/2013 Show to everybody colli berici 59.5 Km 1301 m 03:05:22 19.26 Km\h Battaglin C12
31/10/2013 Show to everybody san giorgio marostica bdc 60.21 Km 714 m 01:58:53 30.39 Km\h Battaglin C12
28/10/2013 Show to everybody breganze pianezze bdc 58.15 Km 606 m 02:02:48 28.41 Km\h Battaglin C12
27/10/2013 Show to everybody colli berici 62.92 Km 1410 m 03:15:54 19.27 Km\h Battaglin C12
20/10/2013 Show to everybody colli berici 36.9 Km 963 m 02:07:13 17.41 Km\h Battaglin C12
16/10/2013 Show to everybody fara molvena san luca bdc 56.9 Km 804 m 02:00:13 28.4 Km\h Battaglin C12
14/10/2013 Show to everybody random bdc 60.38 Km 476 m 02:04:02 29.21 Km\h Battaglin C12
13/10/2013 Show to everybody costabissara brendola bdc 91.08 Km 790 m 03:01:42 30.08 Km\h Battaglin C12
11/10/2013 Show to everybody rosà ar bdc 63.51 Km 286 m 01:59:37 31.86 Km\h Battaglin C12
06/10/2013 Show to everybody colli berici 31.21 Km 820 m 01:39:40 18.79 Km\h Battaglin C12
04/10/2013 Show to everybody rosà ar bdc 61.7 Km 307 m 01:56:07 31.88 Km\h Battaglin C12
03/10/2013 Show to everybody priabona costabissara bdc 60.86 Km 292 m 02:01:06 30.15 Km\h Battaglin C12
02/10/2013 Show to everybody marostica tortima lusiana bdc 71.75 Km 1137 m 02:30:01 28.7 Km\h Battaglin C12
30/09/2013 Show to everybody thiene rosà bdc 58.26 Km 312 m 01:54:07 30.63 Km\h Battaglin C12
29/09/2013 Show to everybody colli berici 63.07 Km 1548 m 03:21:57 18.74 Km\h Battaglin C12
27/09/2013 Show to everybody scarico bdc 63.94 Km 273 m 02:07:15 30.15 Km\h Battaglin C12
26/09/2013 Show to everybody tretto poleo bdc 55.49 Km 838 m 02:03:34 26.94 Km\h Battaglin C12
25/09/2013 Show to everybody colli berici 56.56 Km 1460 m 03:03:38 18.48 Km\h Battaglin C12
23/09/2013 Show to everybody mure pianezze lusiana bdc 56.53 Km 915 m 02:04:00 27.36 Km\h Battaglin C12
22/09/2013 Show to everybody vallelonga 2013 26.4 Km 760 m 01:18:39 20.14 Km\h Battaglin C12
22/09/2013 Show to everybody colli berici 35.99 Km 899 m 01:55:02 18.77 Km\h Battaglin C12
20/09/2013 Show to everybody rosà scarico bdc 56.86 Km 241 m 01:55:36 29.51 Km\h Battaglin C12
19/09/2013 Show to everybody san luca gomarole bdc 60.57 Km 827 m 02:07:39 28.47 Km\h Battaglin C12
18/09/2013 Show to everybody colli berici 58.14 Km 1533 m 03:12:36 18.11 Km\h Battaglin C12
16/09/2013 Show to everybody laverda lusiana bdc 56.58 Km 814 m 01:59:48 28.34 Km\h Battaglin C12
15/09/2013 Show to everybody Colli Euganei 8.52 Km 292 m 00:32:15 15.85 Km\h Battaglin C12
15/09/2013 Show to everybody Colli Euganei 28.63 Km 939 m 01:53:37 15.12 Km\h Battaglin C12
13/09/2013 Show to everybody scarico san zeno di cassola bdc 58.6 Km 283 m 01:58:18 29.72 Km\h Battaglin C12
12/09/2013 Show to everybody colli berici 37.2 Km 1199 m 02:19:02 16.05 Km\h Battaglin C12
11/09/2013 Show to everybody mason laverda lusiana bdc 55.03 Km 1109 m 01:54:26 28.85 Km\h Battaglin C12
09/09/2013 Show to everybody san luca lusiana bdc 53.86 Km 1002 m 01:58:27 27.28 Km\h Battaglin C12
07/09/2013 Show to everybody monteviale malo monte san lorenzo bdc 110.21 Km 2085 m 04:15:48 25.85 Km\h Battaglin C12
06/09/2013 Show to everybody recupero attivo bdc 59.5 Km 433 m 01:56:06 30.75 Km\h Battaglin C12
05/09/2013 Show to everybody marostica lusiana bdc 57.34 Km 1103 m 02:01:38 28.28 Km\h Battaglin C12
04/09/2013 Show to everybody colli berici 72.47 Km 1793 m 03:40:34 19.71 Km\h Battaglin C12
02/09/2013 Show to everybody calvene caltrano arsiero bdc 54.41 Km 693 m 01:52:17 29.08 Km\h Battaglin C12
01/09/2013 Show to everybody sossano 37.27 Km 1260 m 01:56:57 19.12 Km\h Battaglin C12
01/09/2013 Show to everybody riscaldamento gara 6.82 Km 159 m 00:24:12 16.9 Km\h Battaglin C12
30/08/2013 Show to everybody scarico bdc 50.89 Km 181 m 01:40:37 30.35 Km\h Battaglin C12
29/08/2013 Show to everybody scarico bdc 54.16 Km 263 m 01:45:48 30.71 Km\h Battaglin C12
28/08/2013 Show to everybody marostica lusiana calvene bdc 57.53 Km 1098 m 02:01:59 28.3 Km\h Battaglin C12
26/08/2013 Show to everybody poleo santa caterina bdc 51.17 Km 1004 m 01:58:49 25.84 Km\h Battaglin C12
24/08/2013 Show to everybody cima grappa bdc 102.69 Km 2068 m 04:06:25 25 Km\h Battaglin C12
23/08/2013 Show to everybody scarico bdc 56.51 Km 102 m 01:51:46 30.34 Km\h Battaglin C12
22/08/2013 Show to everybody st ulderico bdc 50.84 Km 974 m 01:53:14 26.94 Km\h Battaglin C12
21/08/2013 Show to everybody colli berici 68.83 Km 1781 m 03:15:09 21.16 Km\h Battaglin C12
19/08/2013 Show to everybody st ulderico bdc sbagliata 42.11 Km 84 m 00:48:40 51.91 Km\h Battaglin C12
15/08/2013 Show to everybody bassano gallio lusiana bdc 156.02 Km 1730 m 05:13:25 29.87 Km\h Battaglin C12
12/08/2013 Show to everybody scarico bdc 51.39 Km 358 m 01:48:54 28.31 Km\h Battaglin C12
11/08/2013 Show to everybody breganze asiago tresche conca 135.33 Km 1725 m 04:33:13 29.72 Km\h Battaglin C12
09/08/2013 Show to everybody scarico bdc 59.6 Km 279 m 01:58:12 30.26 Km\h Battaglin C12
08/08/2013 Show to everybody piazza campana bdc 55.87 Km 1187 m 02:02:35 27.35 Km\h Battaglin C12
07/08/2013 Show to everybody Colli berici 59.88 Km 1699 m 03:15:17 18.4 Km\h Battaglin C12
04/08/2013 Show to everybody recoaro campogrosso bdc 129 Km 1960 m 04:48:08 26.86 Km\h Battaglin C12
02/08/2013 Show to everybody scarico bdc 56.62 Km 272 m 01:54:25 29.69 Km\h Battaglin C12
01/08/2013 Show to everybody campana piazza bdc 56.35 Km 1189 m 02:07:20 26.55 Km\h Battaglin C12
31/07/2013 Show to everybody Colli berici 58.2 Km 1401 m 02:57:30 19.67 Km\h Battaglin C12
30/07/2013 Show to everybody Sant\`Ulderico Torrebelvicino bdc 62.28 Km 1154 m 02:21:56 26.33 Km\h Battaglin C12
28/07/2013 Show to everybody priabona recoaro campogrosso bdc 139.9 Km 1991 m 05:16:00 26.56 Km\h Battaglin C12
26/07/2013 Show to everybody piazza campana bdc 52.12 Km 1057 m 02:00:23 25.98 Km\h Battaglin C12
25/07/2013 Show to everybody Colli berici 61.42 Km 915 m 03:23:21 18.12 Km\h Battaglin C12
23/07/2013 Show to everybody torreglia scarico bdc 52.41 Km 193 m 01:43:15 30.46 Km\h Battaglin C12
19/07/2013 Show to everybody arsiero velo d\`astico bdc 57.03 Km 582 m 02:00:28 28.4 Km\h Battaglin C12
18/07/2013 Show to everybody monte di malo faedo bdc 53 Km 731 m 01:56:57 27.19 Km\h Battaglin C12
17/07/2013 Show to everybody colli berici bdc 55.66 Km 851 m 02:02:14 27.32 Km\h Battaglin C12
14/07/2013 Show to everybody malo monte faedo bdc 111.33 Km 1433 m 04:13:37 26.34 Km\h Battaglin C12
12/07/2013 Show to everybody arsiero bdc ar 54.83 Km 717 m 02:02:40 26.82 Km\h Battaglin C12
11/07/2013 Show to everybody san rocco tretto poleo bdc 53.16 Km 855 m 02:03:28 25.83 Km\h Battaglin C12
10/07/2013 Show to everybody colli berici bdc 56.18 Km 848 m 02:03:56 27.2 Km\h Battaglin C12
07/07/2013 Show to everybody pian delle fugazze ar bdc 132.5 Km 1292 m 04:47:23 27.66 Km\h Battaglin C12
05/07/2013 Show to everybody sant\`ulderico tretto 52.27 Km 825 m 02:05:26 25.01 Km\h Battaglin C12
05/07/2013 Show to everybody campogrosso 21 07 2013 bdc 130.19 Km 1432 m 04:50:57 26.85 Km\h Battaglin C12
04/07/2013 Show to everybody lusiana bdc 53.64 Km 815 m 01:57:28 27.4 Km\h Battaglin C12
28/06/2013 Show to everybody caorle anello bdc 59.47 Km 26 m 01:47:54 33.07 Km\h Battaglin C12
27/06/2013 Show to everybody caorle anello bdc2 70.12 Km 56 m 02:03:11 34.16 Km\h Battaglin C12
26/06/2013 Show to everybody caorle anello bdc3 45.24 Km 45 m 01:25:10 31.87 Km\h Battaglin C12
25/06/2013 Show to everybody caorle anello bdc4 100.5 Km 59 m 03:01:11 33.28 Km\h Battaglin C12
23/06/2013 Show to everybody caorle san giorgio di nogaro bdc 101.11 Km 100 m 03:11:55 31.61 Km\h Battaglin C12
21/06/2013 Show to everybody caorle latisana bdc 70.06 Km 83 m 02:05:18 33.55 Km\h Battaglin C12
19/06/2013 Show to everybody caorle san donà bdc 58.85 Km 41 m 01:53:45 31.04 Km\h Battaglin C12
18/06/2013 Show to everybody caorle san michele bdc 64.07 Km 58 m 02:01:52 31.54 Km\h Battaglin C12
13/06/2013 Show to everybody thiene lusiana a_r bdc 50.7 Km 853 m 01:58:27 25.68 Km\h Battaglin C12
12/06/2013 Show to everybody nanto san giovanni monte bdc 57.22 Km 474 m 01:59:53 28.64 Km\h Battaglin C12
07/06/2013 Show to everybody Longare San Giovanni Monte A/R bdc 50.96 Km 473 m 01:51:38 27.39 Km\h Battaglin C12
05/06/2013 Show to everybody Thiene Lusiana A/R bdc 47.96 Km 736 m 01:50:55 25.94 Km\h Battaglin C12
02/06/2013 Show to everybody Torreglia Teolo Este Noventa bdc 89.24 Km 508 m 03:03:27 29.19 Km\h Battaglin C12
26/05/2013 Show to everybody piattone post rientro 59.62 Km 76 m 01:58:15 30.25 Km\h Battaglin C12
18/05/2013 Show to everybody I\`m back 43.81 Km 38 m 01:26:24 30.42 Km\h Battaglin C12
28/02/2013 Show to everybody maledetta maledetta uscita ! 28.04 Km 374 m 01:00:07 27.98 Km\h Battaglin C12
23/02/2013 Show to everybody Colli berici bdc 84.54 Km 2037 m 03:29:50 24.17 Km\h Battaglin C12
20/02/2013 Show to everybody Colli berici bdc 83.19 Km 2072 m 03:33:07 23.42 Km\h Battaglin C12
03/02/2013 Show to everybody Raposso Orgiano Valbona bdc 100.38 Km 384 m 03:19:22 30.21 Km\h Battaglin C12
27/01/2013 Show to everybody Raposso Priabona Marostica 117.82 Km 697 m 03:44:44 31.45 Km\h Battaglin C12
23/01/2013 Show to everybody Malo Thiene Bassano bdc 116.85 Km 426 m 03:36:40 32.36 Km\h Battaglin C12
19/01/2013 Show to everybody Malo Thiene Bassano 110.12 Km 426 m 03:27:21 31.87 Km\h Battaglin C12
12/01/2013 Show to everybody thiene bassano bdc 111.04 Km 512 m 03:34:00 31.13 Km\h Battaglin C12
05/01/2013 Show to everybody malo thiene bassano bdc 110.73 Km 412 m 03:31:15 31.45 Km\h Battaglin C12
03/01/2013 Show to everybody thiene bassano bdc 108.48 Km 397 m 03:28:34 31.21 Km\h Battaglin C12
23/09/2012 Show to everybody longare monte corno a_r 132.46 Km 1399 m 04:40:31 28.33 Km\h Battaglin C12
05/08/2012 Show to everybody campogrosso bdc 130.15 Km 1432 m 04:47:45 27.14 Km\h Battaglin C12

Show previous years trainings
This user's bikes.
Battaglin C12 343 22890.07 Km 298973 m 838:59:59 26.82 Km/h

595 points
Kilometers
0
Vertical gain
0
Rank:33

Watch ranking »

 

Bike name

Delete this bike?

Now you follow this users and you can compare your trainings

If you stop following this users you will not be able to compare your trainings with his


bdc-forum.it | 2012-2020 Training Camp v.1.0.15